sensor_id;sensor_type;location;lat;lon;timestamp;temperature;humidity
30280;DHT22;17097;50.916;5.344;2023-07-13T00:00:12;19.00;99.90
30280;DHT22;17097;50.916;5.344;2023-07-13T00:02:42;18.80;99.90
30280;DHT22;17097;50.916;5.344;2023-07-13T00:05:07;18.80;99.90
30280;DHT22;17097;50.916;5.344;2023-07-13T00:07:34;18.80;99.90
30280;DHT22;17097;50.916;5.344;2023-07-13T00:10:01;18.80;99.90
30280;DHT22;17097;50.916;5.344;2023-07-13T00:12:32;18.70;99.90
30280;DHT22;17097;50.916;5.344;2023-07-13T00:15:00;18.60;99.90
30280;DHT22;17097;50.916;5.344;2023-07-13T00:17:27;18.70;99.90
30280;DHT22;17097;50.916;5.344;2023-07-13T00:19:55;18.60;99.90
30280;DHT22;17097;50.916;5.344;2023-07-13T00:22:22;18.60;99.90
30280;DHT22;17097;50.916;5.344;2023-07-13T00:24:53;18.70;99.90
30280;DHT22;17097;50.916;5.344;2023-07-13T00:27:21;18.70;99.90
30280;DHT22;17097;50.916;5.344;2023-07-13T00:29:51;18.60;99.90
30280;DHT22;17097;50.916;5.344;2023-07-13T00:32:18;18.50;99.90
30280;DHT22;17097;50.916;5.344;2023-07-13T00:34:43;18.50;99.90
30280;DHT22;17097;50.916;5.344;2023-07-13T00:37:10;18.50;99.90
30280;DHT22;17097;50.916;5.344;2023-07-13T00:39:37;18.40;99.90
30280;DHT22;17097;50.916;5.344;2023-07-13T00:42:03;18.40;99.90
30280;DHT22;17097;50.916;5.344;2023-07-13T00:44:29;18.40;99.90
30280;DHT22;17097;50.916;5.344;2023-07-13T00:46:57;18.40;99.90
30280;DHT22;17097;50.916;5.344;2023-07-13T00:49:26;18.50;99.90
30280;DHT22;17097;50.916;5.344;2023-07-13T00:51:57;18.40;99.90
30280;DHT22;17097;50.916;5.344;2023-07-13T00:54:30;18.40;99.90
30280;DHT22;17097;50.916;5.344;2023-07-13T00:57:00;18.40;99.90
30280;DHT22;17097;50.916;5.344;2023-07-13T00:59:27;18.40;99.90
30280;DHT22;17097;50.916;5.344;2023-07-13T01:01:54;18.30;99.90
30280;DHT22;17097;50.916;5.344;2023-07-13T01:04:20;18.30;99.90
30280;DHT22;17097;50.916;5.344;2023-07-13T01:06:48;18.30;99.90
30280;DHT22;17097;50.916;5.344;2023-07-13T01:09:15;18.30;99.90
30280;DHT22;17097;50.916;5.344;2023-07-13T01:11:43;18.20;99.90
30280;DHT22;17097;50.916;5.344;2023-07-13T01:14:13;18.20;99.90
30280;DHT22;17097;50.916;5.344;2023-07-13T01:16:42;18.20;99.90
30280;DHT22;17097;50.916;5.344;2023-07-13T01:19:36;18.30;99.90
30280;DHT22;17097;50.916;5.344;2023-07-13T01:22:11;18.30;99.90
30280;DHT22;17097;50.916;5.344;2023-07-13T01:24:43;18.30;99.90
30280;DHT22;17097;50.916;5.344;2023-07-13T01:27:12;18.10;99.90
30280;DHT22;17097;50.916;5.344;2023-07-13T01:29:39;18.10;99.90
30280;DHT22;17097;50.916;5.344;2023-07-13T01:32:13;18.10;99.90
30280;DHT22;17097;50.916;5.344;2023-07-13T01:34:39;18.20;99.90
30280;DHT22;17097;50.916;5.344;2023-07-13T01:37:09;18.10;99.90
30280;DHT22;17097;50.916;5.344;2023-07-13T01:39:35;18.20;99.90
30280;DHT22;17097;50.916;5.344;2023-07-13T01:42:01;18.10;99.90
30280;DHT22;17097;50.916;5.344;2023-07-13T01:44:30;18.10;99.90
30280;DHT22;17097;50.916;5.344;2023-07-13T01:46:57;18.10;99.90
30280;DHT22;17097;50.916;5.344;2023-07-13T01:49:23;18.00;99.90
30280;DHT22;17097;50.916;5.344;2023-07-13T01:51:49;18.00;99.90
30280;DHT22;17097;50.916;5.344;2023-07-13T01:54:17;18.00;99.90
30280;DHT22;17097;50.916;5.344;2023-07-13T01:56:43;18.00;99.90
30280;DHT22;17097;50.916;5.344;2023-07-13T01:59:09;18.00;99.90
30280;DHT22;17097;50.916;5.344;2023-07-13T02:01:35;18.00;99.90
30280;DHT22;17097;50.916;5.344;2023-07-13T02:04:04;18.00;99.90
30280;DHT22;17097;50.916;5.344;2023-07-13T02:06:29;17.90;99.90
30280;DHT22;17097;50.916;5.344;2023-07-13T02:08:55;17.80;99.90
30280;DHT22;17097;50.916;5.344;2023-07-13T02:11:21;17.80;99.90
30280;DHT22;17097;50.916;5.344;2023-07-13T02:13:47;17.80;99.90
30280;DHT22;17097;50.916;5.344;2023-07-13T02:16:13;17.90;99.90
30280;DHT22;17097;50.916;5.344;2023-07-13T02:18:39;18.00;99.90
30280;DHT22;17097;50.916;5.344;2023-07-13T02:21:06;17.90;99.90
30280;DHT22;17097;50.916;5.344;2023-07-13T02:23:32;17.90;99.90
30280;DHT22;17097;50.916;5.344;2023-07-13T02:25:59;17.80;99.90
30280;DHT22;17097;50.916;5.344;2023-07-13T02:28:25;17.80;99.90
30280;DHT22;17097;50.916;5.344;2023-07-13T02:30:52;17.80;99.90
30280;DHT22;17097;50.916;5.344;2023-07-13T02:33:18;17.80;99.90
30280;DHT22;17097;50.916;5.344;2023-07-13T02:35:43;17.80;99.90
30280;DHT22;17097;50.916;5.344;2023-07-13T02:38:09;17.80;99.90
30280;DHT22;17097;50.916;5.344;2023-07-13T02:40:35;17.70;99.90
30280;DHT22;17097;50.916;5.344;2023-07-13T02:43:03;17.70;99.90
30280;DHT22;17097;50.916;5.344;2023-07-13T02:45:29;17.70;99.90
30280;DHT22;17097;50.916;5.344;2023-07-13T02:47:55;17.70;99.90
30280;DHT22;17097;50.916;5.344;2023-07-13T02:50:20;17.60;99.90
30280;DHT22;17097;50.916;5.344;2023-07-13T02:52:49;17.50;99.90
30280;DHT22;17097;50.916;5.344;2023-07-13T02:55:14;17.50;99.90
30280;DHT22;17097;50.916;5.344;2023-07-13T02:57:40;17.50;99.90
30280;DHT22;17097;50.916;5.344;2023-07-13T03:00:06;17.40;99.90
30280;DHT22;17097;50.916;5.344;2023-07-13T03:02:35;17.40;99.90
30280;DHT22;17097;50.916;5.344;2023-07-13T03:05:02;17.40;99.90
30280;DHT22;17097;50.916;5.344;2023-07-13T03:07:29;17.30;99.90
30280;DHT22;17097;50.916;5.344;2023-07-13T03:09:56;17.30;99.90
30280;DHT22;17097;50.916;5.344;2023-07-13T03:12:23;17.30;99.90
30280;DHT22;17097;50.916;5.344;2023-07-13T03:14:48;17.20;99.90
30280;DHT22;17097;50.916;5.344;2023-07-13T03:17:14;17.20;99.90
30280;DHT22;17097;50.916;5.344;2023-07-13T03:19:40;17.20;99.90
30280;DHT22;17097;50.916;5.344;2023-07-13T03:22:05;17.20;99.90
30280;DHT22;17097;50.916;5.344;2023-07-13T03:24:33;17.30;99.90
30280;DHT22;17097;50.916;5.344;2023-07-13T03:27:05;17.20;99.90
30280;DHT22;17097;50.916;5.344;2023-07-13T03:29:31;17.30;99.90
30280;DHT22;17097;50.916;5.344;2023-07-13T03:31:57;17.30;99.90
30280;DHT22;17097;50.916;5.344;2023-07-13T03:34:23;17.20;99.90
30280;DHT22;17097;50.916;5.344;2023-07-13T03:36:54;17.20;99.90
30280;DHT22;17097;50.916;5.344;2023-07-13T03:39:20;17.20;99.90
30280;DHT22;17097;50.916;5.344;2023-07-13T03:41:46;17.20;99.90
30280;DHT22;17097;50.916;5.344;2023-07-13T03:44:12;17.20;99.90
30280;DHT22;17097;50.916;5.344;2023-07-13T03:46:37;17.20;99.90
30280;DHT22;17097;50.916;5.344;2023-07-13T03:49:04;17.30;99.90
30280;DHT22;17097;50.916;5.344;2023-07-13T03:51:32;17.30;99.90
30280;DHT22;17097;50.916;5.344;2023-07-13T03:53:58;17.30;99.90
30280;DHT22;17097;50.916;5.344;2023-07-13T03:56:24;17.30;99.90
30280;DHT22;17097;50.916;5.344;2023-07-13T03:58:50;17.40;99.90
30280;DHT22;17097;50.916;5.344;2023-07-13T04:01:21;17.40;99.90
30280;DHT22;17097;50.916;5.344;2023-07-13T04:03:50;17.40;99.90
30280;DHT22;17097;50.916;5.344;2023-07-13T04:06:28;17.30;99.90
30280;DHT22;17097;50.916;5.344;2023-07-13T04:08:56;17.40;99.90
30280;DHT22;17097;50.916;5.344;2023-07-13T04:11:24;17.30;99.90
30280;DHT22;17097;50.916;5.344;2023-07-13T04:13:51;17.40;99.90
30280;DHT22;17097;50.916;5.344;2023-07-13T04:16:18;17.40;99.90
30280;DHT22;17097;50.916;5.344;2023-07-13T04:18:45;17.40;99.90
30280;DHT22;17097;50.916;5.344;2023-07-13T04:21:11;17.30;99.90
30280;DHT22;17097;50.916;5.344;2023-07-13T04:23:37;17.30;99.90
30280;DHT22;17097;50.916;5.344;2023-07-13T04:26:04;17.30;99.90
30280;DHT22;17097;50.916;5.344;2023-07-13T04:28:30;17.30;99.90
30280;DHT22;17097;50.916;5.344;2023-07-13T04:30:56;17.30;99.90
30280;DHT22;17097;50.916;5.344;2023-07-13T04:33:22;17.40;99.90
30280;DHT22;17097;50.916;5.344;2023-07-13T04:35:52;17.40;99.90
30280;DHT22;17097;50.916;5.344;2023-07-13T04:38:23;17.40;99.90
30280;DHT22;17097;50.916;5.344;2023-07-13T04:41:02;17.50;99.90
30280;DHT22;17097;50.916;5.344;2023-07-13T04:43:28;17.60;99.90
30280;DHT22;17097;50.916;5.344;2023-07-13T04:45:54;17.60;99.90
30280;DHT22;17097;50.916;5.344;2023-07-13T04:48:20;17.70;99.90
30280;DHT22;17097;50.916;5.344;2023-07-13T04:50:47;17.80;99.90
30280;DHT22;17097;50.916;5.344;2023-07-13T04:53:13;17.80;99.90
30280;DHT22;17097;50.916;5.344;2023-07-13T04:55:39;17.80;99.90
30280;DHT22;17097;50.916;5.344;2023-07-13T04:58:07;17.80;99.90
30280;DHT22;17097;50.916;5.344;2023-07-13T05:00:33;17.90;99.90
30280;DHT22;17097;50.916;5.344;2023-07-13T05:02:59;17.90;99.90
30280;DHT22;17097;50.916;5.344;2023-07-13T05:05:25;17.80;99.90
30280;DHT22;17097;50.916;5.344;2023-07-13T05:07:52;17.90;99.90
30280;DHT22;17097;50.916;5.344;2023-07-13T05:10:17;18.00;99.90
30280;DHT22;17097;50.916;5.344;2023-07-13T05:12:44;18.10;99.90
30280;DHT22;17097;50.916;5.344;2023-07-13T05:15:13;18.20;99.90
30280;DHT22;17097;50.916;5.344;2023-07-13T05:17:41;18.00;99.90
30280;DHT22;17097;50.916;5.344;2023-07-13T05:20:07;18.00;99.90
30280;DHT22;17097;50.916;5.344;2023-07-13T05:22:33;18.20;99.90
30280;DHT22;17097;50.916;5.344;2023-07-13T05:25:01;18.10;99.90
30280;DHT22;17097;50.916;5.344;2023-07-13T05:27:27;18.20;99.90
30280;DHT22;17097;50.916;5.344;2023-07-13T05:29:53;18.10;99.90
30280;DHT22;17097;50.916;5.344;2023-07-13T05:32:19;18.10;99.90
30280;DHT22;17097;50.916;5.344;2023-07-13T05:34:45;18.00;99.90
30280;DHT22;17097;50.916;5.344;2023-07-13T05:37:11;18.10;99.90
30280;DHT22;17097;50.916;5.344;2023-07-13T05:39:36;18.10;99.90
30280;DHT22;17097;50.916;5.344;2023-07-13T05:42:03;18.20;99.90
30280;DHT22;17097;50.916;5.344;2023-07-13T05:44:29;18.30;99.90
30280;DHT22;17097;50.916;5.344;2023-07-13T05:46:58;18.20;99.90
30280;DHT22;17097;50.916;5.344;2023-07-13T05:49:24;18.20;99.90
30280;DHT22;17097;50.916;5.344;2023-07-13T05:51:50;18.30;99.90
30280;DHT22;17097;50.916;5.344;2023-07-13T05:54:18;18.30;99.90
30280;DHT22;17097;50.916;5.344;2023-07-13T05:56:46;18.40;99.90
30280;DHT22;17097;50.916;5.344;2023-07-13T05:59:13;18.20;99.90
30280;DHT22;17097;50.916;5.344;2023-07-13T06:01:39;18.30;99.90
30280;DHT22;17097;50.916;5.344;2023-07-13T06:04:05;18.50;99.90
30280;DHT22;17097;50.916;5.344;2023-07-13T06:06:34;18.50;99.90
30280;DHT22;17097;50.916;5.344;2023-07-13T06:08:59;18.30;99.90
30280;DHT22;17097;50.916;5.344;2023-07-13T06:11:26;18.40;99.90
30280;DHT22;17097;50.916;5.344;2023-07-13T06:13:53;18.30;99.90
30280;DHT22;17097;50.916;5.344;2023-07-13T06:16:19;18.40;99.90
30280;DHT22;17097;50.916;5.344;2023-07-13T06:18:45;18.60;99.90
30280;DHT22;17097;50.916;5.344;2023-07-13T06:21:15;18.70;99.90
30280;DHT22;17097;50.916;5.344;2023-07-13T06:23:45;18.70;99.90
30280;DHT22;17097;50.916;5.344;2023-07-13T06:26:13;18.90;99.90
30280;DHT22;17097;50.916;5.344;2023-07-13T06:28:38;18.90;99.90
30280;DHT22;17097;50.916;5.344;2023-07-13T06:31:07;18.90;99.90
30280;DHT22;17097;50.916;5.344;2023-07-13T06:33:34;19.00;99.90
30280;DHT22;17097;50.916;5.344;2023-07-13T06:36:00;19.00;99.90
30280;DHT22;17097;50.916;5.344;2023-07-13T06:38:26;19.00;99.90
30280;DHT22;17097;50.916;5.344;2023-07-13T06:40:51;19.10;99.90
30280;DHT22;17097;50.916;5.344;2023-07-13T06:43:17;19.10;99.90
30280;DHT22;17097;50.916;5.344;2023-07-13T06:45:45;19.20;99.90
30280;DHT22;17097;50.916;5.344;2023-07-13T06:48:13;19.20;99.90
30280;DHT22;17097;50.916;5.344;2023-07-13T06:50:39;19.20;99.90
30280;DHT22;17097;50.916;5.344;2023-07-13T06:53:08;19.40;99.90
30280;DHT22;17097;50.916;5.344;2023-07-13T06:55:34;19.30;99.90
30280;DHT22;17097;50.916;5.344;2023-07-13T06:58:02;19.40;99.90
30280;DHT22;17097;50.916;5.344;2023-07-13T07:00:28;19.50;99.90
30280;DHT22;17097;50.916;5.344;2023-07-13T07:02:56;19.60;99.90
30280;DHT22;17097;50.916;5.344;2023-07-13T07:05:22;19.70;99.90
30280;DHT22;17097;50.916;5.344;2023-07-13T07:07:49;19.90;99.90
30280;DHT22;17097;50.916;5.344;2023-07-13T07:10:17;19.90;99.90
30280;DHT22;17097;50.916;5.344;2023-07-13T07:12:43;19.90;99.90
30280;DHT22;17097;50.916;5.344;2023-07-13T07:15:09;20.00;99.90
30280;DHT22;17097;50.916;5.344;2023-07-13T07:17:38;20.00;99.90
30280;DHT22;17097;50.916;5.344;2023-07-13T07:20:05;20.00;99.90
30280;DHT22;17097;50.916;5.344;2023-07-13T07:22:33;20.00;99.90
30280;DHT22;17097;50.916;5.344;2023-07-13T07:24:59;19.90;99.90
30280;DHT22;17097;50.916;5.344;2023-07-13T07:27:26;19.90;99.90
30280;DHT22;17097;50.916;5.344;2023-07-13T07:29:56;20.20;99.90
30280;DHT22;17097;50.916;5.344;2023-07-13T07:32:23;20.20;99.90
30280;DHT22;17097;50.916;5.344;2023-07-13T07:34:49;20.10;99.90
30280;DHT22;17097;50.916;5.344;2023-07-13T07:37:16;20.10;99.90
30280;DHT22;17097;50.916;5.344;2023-07-13T07:39:43;20.30;99.90
30280;DHT22;17097;50.916;5.344;2023-07-13T07:42:09;20.40;99.90
30280;DHT22;17097;50.916;5.344;2023-07-13T07:44:35;20.50;99.90
30280;DHT22;17097;50.916;5.344;2023-07-13T07:47:01;20.50;99.90
30280;DHT22;17097;50.916;5.344;2023-07-13T07:49:30;20.40;99.90
30280;DHT22;17097;50.916;5.344;2023-07-13T07:51:55;20.40;99.90
30280;DHT22;17097;50.916;5.344;2023-07-13T07:54:21;20.60;99.90
30280;DHT22;17097;50.916;5.344;2023-07-13T07:56:47;20.60;99.90
30280;DHT22;17097;50.916;5.344;2023-07-13T07:59:13;20.70;99.90
30280;DHT22;17097;50.916;5.344;2023-07-13T08:01:38;20.70;99.90
30280;DHT22;17097;50.916;5.344;2023-07-13T08:04:04;20.70;99.90
30280;DHT22;17097;50.916;5.344;2023-07-13T08:06:32;20.70;99.90
30280;DHT22;17097;50.916;5.344;2023-07-13T08:08:59;20.90;99.90
30280;DHT22;17097;50.916;5.344;2023-07-13T08:11:26;20.90;99.90
30280;DHT22;17097;50.916;5.344;2023-07-13T08:13:52;20.90;99.90
30280;DHT22;17097;50.916;5.344;2023-07-13T08:16:17;21.00;99.90
30280;DHT22;17097;50.916;5.344;2023-07-13T08:18:46;21.20;99.90
30280;DHT22;17097;50.916;5.344;2023-07-13T08:21:14;21.50;99.90
30280;DHT22;17097;50.916;5.344;2023-07-13T08:23:40;21.40;99.90
30280;DHT22;17097;50.916;5.344;2023-07-13T08:26:06;21.40;99.90
30280;DHT22;17097;50.916;5.344;2023-07-13T08:28:33;21.40;99.90
30280;DHT22;17097;50.916;5.344;2023-07-13T08:31:05;21.50;99.90
30280;DHT22;17097;50.916;5.344;2023-07-13T08:33:33;21.50;99.90
30280;DHT22;17097;50.916;5.344;2023-07-13T08:36:00;21.70;99.90
30280;DHT22;17097;50.916;5.344;2023-07-13T08:38:26;21.70;99.90
30280;DHT22;17097;50.916;5.344;2023-07-13T08:40:55;21.70;99.90
30280;DHT22;17097;50.916;5.344;2023-07-13T08:43:26;21.80;99.90
30280;DHT22;17097;50.916;5.344;2023-07-13T08:46:02;21.90;99.90
30280;DHT22;17097;50.916;5.344;2023-07-13T08:48:59;21.70;99.90
30280;DHT22;17097;50.916;5.344;2023-07-13T08:51:49;21.50;99.90
30280;DHT22;17097;50.916;5.344;2023-07-13T08:54:37;21.50;99.90
30280;DHT22;17097;50.916;5.344;2023-07-13T08:57:18;21.60;99.90
30280;DHT22;17097;50.916;5.344;2023-07-13T08:59:44;21.70;99.90
30280;DHT22;17097;50.916;5.344;2023-07-13T09:02:26;21.90;99.90
30280;DHT22;17097;50.916;5.344;2023-07-13T09:05:04;21.90;99.90
30280;DHT22;17097;50.916;5.344;2023-07-13T09:10:27;21.80;99.90
30280;DHT22;17097;50.916;5.344;2023-07-13T09:15:44;21.90;99.90
30280;DHT22;17097;50.916;5.344;2023-07-13T09:20:58;22.10;99.90
30280;DHT22;17097;50.916;5.344;2023-07-13T09:23:28;22.20;99.90
30280;DHT22;17097;50.916;5.344;2023-07-13T09:26:24;22.50;99.90
30280;DHT22;17097;50.916;5.344;2023-07-13T09:28:53;23.00;99.90
30280;DHT22;17097;50.916;5.344;2023-07-13T09:31:34;23.30;99.90
30280;DHT22;17097;50.916;5.344;2023-07-13T09:34:10;24.10;99.90
30280;DHT22;17097;50.916;5.344;2023-07-13T09:36:36;24.40;99.90
30280;DHT22;17097;50.916;5.344;2023-07-13T09:39:09;24.50;99.90
30280;DHT22;17097;50.916;5.344;2023-07-13T09:44:34;24.60;99.90
30280;DHT22;17097;50.916;5.344;2023-07-13T09:47:01;24.50;99.90
30280;DHT22;17097;50.916;5.344;2023-07-13T09:49:34;24.40;99.90
30280;DHT22;17097;50.916;5.344;2023-07-13T09:52:11;24.50;99.90
30280;DHT22;17097;50.916;5.344;2023-07-13T09:54:38;24.90;99.90
30280;DHT22;17097;50.916;5.344;2023-07-13T09:57:12;24.70;99.90
30280;DHT22;17097;50.916;5.344;2023-07-13T09:59:45;24.70;99.90
30280;DHT22;17097;50.916;5.344;2023-07-13T10:02:25;24.50;99.90
30280;DHT22;17097;50.916;5.344;2023-07-13T10:05:06;24.60;99.90
30280;DHT22;17097;50.916;5.344;2023-07-13T10:07:38;24.70;99.90
30280;DHT22;17097;50.916;5.344;2023-07-13T10:10:14;24.70;99.90
30280;DHT22;17097;50.916;5.344;2023-07-13T10:12:41;24.50;99.90
30280;DHT22;17097;50.916;5.344;2023-07-13T10:15:14;24.50;99.90
30280;DHT22;17097;50.916;5.344;2023-07-13T10:17:41;24.30;99.90
30280;DHT22;17097;50.916;5.344;2023-07-13T10:20:07;24.70;99.90
30280;DHT22;17097;50.916;5.344;2023-07-13T10:25:31;25.20;99.90
30280;DHT22;17097;50.916;5.344;2023-07-13T10:30:51;25.60;99.90
30280;DHT22;17097;50.916;5.344;2023-07-13T10:33:18;25.50;99.90
30280;DHT22;17097;50.916;5.344;2023-07-13T10:35:47;25.30;99.90
30280;DHT22;17097;50.916;5.344;2023-07-13T10:38:23;25.60;99.90
30280;DHT22;17097;50.916;5.344;2023-07-13T10:41:14;25.50;99.90
30280;DHT22;17097;50.916;5.344;2023-07-13T10:43:47;25.80;99.90
30280;DHT22;17097;50.916;5.344;2023-07-13T10:46:22;25.70;99.90
30280;DHT22;17097;50.916;5.344;2023-07-13T10:48:53;25.80;99.90
30280;DHT22;17097;50.916;5.344;2023-07-13T10:51:21;25.50;99.90
30280;DHT22;17097;50.916;5.344;2023-07-13T10:53:47;25.60;99.90
30280;DHT22;17097;50.916;5.344;2023-07-13T10:56:31;25.20;99.90
30280;DHT22;17097;50.916;5.344;2023-07-13T10:59:17;25.00;99.90
30280;DHT22;17097;50.916;5.344;2023-07-13T11:04:46;25.00;99.90
30280;DHT22;17097;50.916;5.344;2023-07-13T11:07:25;25.30;99.90
30280;DHT22;17097;50.916;5.344;2023-07-13T11:09:54;25.50;99.90
30280;DHT22;17097;50.916;5.344;2023-07-13T11:17:34;26.40;99.90
30280;DHT22;17097;50.916;5.344;2023-07-13T11:23:06;26.50;99.90
30280;DHT22;17097;50.916;5.344;2023-07-13T11:25:34;27.00;99.90
30280;DHT22;17097;50.916;5.344;2023-07-13T11:33:27;27.10;99.10
30280;DHT22;17097;50.916;5.344;2023-07-13T11:36:05;26.90;99.00
30280;DHT22;17097;50.916;5.344;2023-07-13T11:41:37;26.70;98.30
30280;DHT22;17097;50.916;5.344;2023-07-13T11:44:13;27.00;97.60
30280;DHT22;17097;50.916;5.344;2023-07-13T11:46:48;27.30;97.60
30280;DHT22;17097;50.916;5.344;2023-07-13T11:49:22;27.50;96.50
30280;DHT22;17097;50.916;5.344;2023-07-13T11:51:48;27.40;95.80
30280;DHT22;17097;50.916;5.344;2023-07-13T11:59:54;26.90;96.00
30280;DHT22;17097;50.916;5.344;2023-07-13T12:04:54;26.70;94.90
30280;DHT22;17097;50.916;5.344;2023-07-13T12:07:20;26.90;93.70
30280;DHT22;17097;50.916;5.344;2023-07-13T12:09:46;26.60;93.70
30280;DHT22;17097;50.916;5.344;2023-07-13T12:12:15;26.40;94.80
30280;DHT22;17097;50.916;5.344;2023-07-13T12:14:42;26.30;94.90
30280;DHT22;17097;50.916;5.344;2023-07-13T12:17:20;26.50;96.30
30280;DHT22;17097;50.916;5.344;2023-07-13T12:19:48;26.50;96.00
30280;DHT22;17097;50.916;5.344;2023-07-13T12:22:16;26.60;95.80
30280;DHT22;17097;50.916;5.344;2023-07-13T12:24:43;26.60;94.60
30280;DHT22;17097;50.916;5.344;2023-07-13T12:27:24;26.90;95.10
30280;DHT22;17097;50.916;5.344;2023-07-13T12:29:59;26.50;94.50
30280;DHT22;17097;50.916;5.344;2023-07-13T12:32:27;26.20;94.40
30280;DHT22;17097;50.916;5.344;2023-07-13T12:34:55;26.30;93.40
30280;DHT22;17097;50.916;5.344;2023-07-13T12:37:21;26.10;94.30
30280;DHT22;17097;50.916;5.344;2023-07-13T12:39:48;26.00;94.90
30280;DHT22;17097;50.916;5.344;2023-07-13T12:42:27;26.10;94.60
30280;DHT22;17097;50.916;5.344;2023-07-13T12:45:00;26.10;93.40
30280;DHT22;17097;50.916;5.344;2023-07-13T12:47:27;26.30;94.00
30280;DHT22;17097;50.916;5.344;2023-07-13T12:50:00;26.50;94.50
30280;DHT22;17097;50.916;5.344;2023-07-13T12:52:35;26.20;93.60
30280;DHT22;17097;50.916;5.344;2023-07-13T12:55:17;26.30;93.70
30280;DHT22;17097;50.916;5.344;2023-07-13T12:57:54;25.90;93.40
30280;DHT22;17097;50.916;5.344;2023-07-13T13:00:40;25.70;94.40
30280;DHT22;17097;50.916;5.344;2023-07-13T13:03:18;25.50;94.40
30280;DHT22;17097;50.916;5.344;2023-07-13T13:05:45;25.50;94.20
30280;DHT22;17097;50.916;5.344;2023-07-13T13:08:11;25.40;94.10
30280;DHT22;17097;50.916;5.344;2023-07-13T13:10:37;25.50;94.00
30280;DHT22;17097;50.916;5.344;2023-07-13T13:13:03;25.40;93.40
30280;DHT22;17097;50.916;5.344;2023-07-13T13:15:32;25.20;94.00
30280;DHT22;17097;50.916;5.344;2023-07-13T13:17:58;24.90;94.60
30280;DHT22;17097;50.916;5.344;2023-07-13T13:20:25;24.80;95.00
30280;DHT22;17097;50.916;5.344;2023-07-13T13:22:53;24.80;95.20
30280;DHT22;17097;50.916;5.344;2023-07-13T13:25:20;24.80;95.30
30280;DHT22;17097;50.916;5.344;2023-07-13T13:27:48;24.90;95.00
30280;DHT22;17097;50.916;5.344;2023-07-13T13:30:17;24.60;95.90
30280;DHT22;17097;50.916;5.344;2023-07-13T13:32:45;24.50;99.90
30280;DHT22;17097;50.916;5.344;2023-07-13T13:35:15;23.70;99.90
30280;DHT22;17097;50.916;5.344;2023-07-13T13:37:41;23.40;99.90
30280;DHT22;17097;50.916;5.344;2023-07-13T13:42:40;22.40;99.90
30280;DHT22;17097;50.916;5.344;2023-07-13T13:45:10;22.30;99.90
30280;DHT22;17097;50.916;5.344;2023-07-13T13:47:40;22.20;99.90
30280;DHT22;17097;50.916;5.344;2023-07-13T13:50:22;21.80;99.90
30280;DHT22;17097;50.916;5.344;2023-07-13T13:52:48;21.80;99.90
30280;DHT22;17097;50.916;5.344;2023-07-13T13:55:18;22.00;99.90
30280;DHT22;17097;50.916;5.344;2023-07-13T13:57:46;21.60;99.90
30280;DHT22;17097;50.916;5.344;2023-07-13T14:00:12;21.40;99.90
30280;DHT22;17097;50.916;5.344;2023-07-13T14:02:41;21.20;99.90
30280;DHT22;17097;50.916;5.344;2023-07-13T14:05:12;21.00;99.90
30280;DHT22;17097;50.916;5.344;2023-07-13T14:07:37;21.00;99.90
30280;DHT22;17097;50.916;5.344;2023-07-13T14:10:11;20.90;99.90
30280;DHT22;17097;50.916;5.344;2023-07-13T14:12:38;20.90;99.90
30280;DHT22;17097;50.916;5.344;2023-07-13T14:15:04;21.00;99.90
30280;DHT22;17097;50.916;5.344;2023-07-13T14:17:31;21.20;99.90
30280;DHT22;17097;50.916;5.344;2023-07-13T14:19:59;21.10;99.90
30280;DHT22;17097;50.916;5.344;2023-07-13T14:22:26;21.30;99.90
30280;DHT22;17097;50.916;5.344;2023-07-13T14:24:55;21.40;99.90
30280;DHT22;17097;50.916;5.344;2023-07-13T14:27:22;21.60;99.90
30280;DHT22;17097;50.916;5.344;2023-07-13T14:29:51;21.80;99.90
30280;DHT22;17097;50.916;5.344;2023-07-13T14:32:16;21.80;99.90
30280;DHT22;17097;50.916;5.344;2023-07-13T14:34:42;22.00;99.90
30280;DHT22;17097;50.916;5.344;2023-07-13T14:37:17;21.70;99.90
30280;DHT22;17097;50.916;5.344;2023-07-13T14:39:51;21.80;99.90
30280;DHT22;17097;50.916;5.344;2023-07-13T14:42:17;21.70;99.90
30280;DHT22;17097;50.916;5.344;2023-07-13T14:44:45;21.50;99.90
30280;DHT22;17097;50.916;5.344;2023-07-13T14:47:11;21.70;99.90
30280;DHT22;17097;50.916;5.344;2023-07-13T14:49:40;21.90;99.90
30280;DHT22;17097;50.916;5.344;2023-07-13T14:52:21;22.00;99.90
30280;DHT22;17097;50.916;5.344;2023-07-13T14:54:48;22.20;99.90
30280;DHT22;17097;50.916;5.344;2023-07-13T14:57:16;22.60;99.90
30280;DHT22;17097;50.916;5.344;2023-07-13T14:59:42;23.00;99.90
30280;DHT22;17097;50.916;5.344;2023-07-13T15:02:42;23.20;99.90
30280;DHT22;17097;50.916;5.344;2023-07-13T15:05:18;23.50;99.90
30280;DHT22;17097;50.916;5.344;2023-07-13T15:07:44;24.00;99.90
30280;DHT22;17097;50.916;5.344;2023-07-13T15:10:19;24.10;99.90
30280;DHT22;17097;50.916;5.344;2023-07-13T15:12:46;24.20;99.90
30280;DHT22;17097;50.916;5.344;2023-07-13T15:15:12;24.20;99.90
30280;DHT22;17097;50.916;5.344;2023-07-13T15:17:40;24.40;99.90
30280;DHT22;17097;50.916;5.344;2023-07-13T15:20:28;24.50;99.90
30280;DHT22;17097;50.916;5.344;2023-07-13T15:22:55;24.60;99.90
30280;DHT22;17097;50.916;5.344;2023-07-13T15:25:24;24.70;99.90
30280;DHT22;17097;50.916;5.344;2023-07-13T15:27:54;24.80;99.90
30280;DHT22;17097;50.916;5.344;2023-07-13T15:30:22;25.00;99.90
30280;DHT22;17097;50.916;5.344;2023-07-13T15:32:48;25.30;99.90
30280;DHT22;17097;50.916;5.344;2023-07-13T15:35:16;25.60;99.90
30280;DHT22;17097;50.916;5.344;2023-07-13T15:37:43;25.40;99.90
30280;DHT22;17097;50.916;5.344;2023-07-13T15:40:12;25.40;99.90
30280;DHT22;17097;50.916;5.344;2023-07-13T15:42:39;25.60;99.90
30280;DHT22;17097;50.916;5.344;2023-07-13T15:45:24;25.60;99.90
30280;DHT22;17097;50.916;5.344;2023-07-13T15:47:50;25.70;99.90
30280;DHT22;17097;50.916;5.344;2023-07-13T15:50:22;25.60;99.90
30280;DHT22;17097;50.916;5.344;2023-07-13T15:52:54;25.70;99.90
30280;DHT22;17097;50.916;5.344;2023-07-13T15:55:21;25.90;99.90
30280;DHT22;17097;50.916;5.344;2023-07-13T15:57:51;25.90;99.90
30280;DHT22;17097;50.916;5.344;2023-07-13T16:00:23;26.00;99.90
30280;DHT22;17097;50.916;5.344;2023-07-13T16:02:50;26.00;99.90
30280;DHT22;17097;50.916;5.344;2023-07-13T16:05:17;26.00;99.90
30280;DHT22;17097;50.916;5.344;2023-07-13T16:07:44;25.80;99.70
30280;DHT22;17097;50.916;5.344;2023-07-13T16:10:22;25.70;99.00
30280;DHT22;17097;50.916;5.344;2023-07-13T16:12:52;25.80;98.10
30280;DHT22;17097;50.916;5.344;2023-07-13T16:15:20;25.50;98.60
30280;DHT22;17097;50.916;5.344;2023-07-13T16:17:47;25.40;98.40
30280;DHT22;17097;50.916;5.344;2023-07-13T16:20:14;25.40;98.80
30280;DHT22;17097;50.916;5.344;2023-07-13T16:22:43;25.40;98.80
30280;DHT22;17097;50.916;5.344;2023-07-13T16:25:23;25.30;99.00
30280;DHT22;17097;50.916;5.344;2023-07-13T16:27:51;25.50;99.20